sensor_id;sensor_type;location;lat;lon;timestamp;P1;durP1;ratioP1;P2;durP2;ratioP2
24421;SDS011;12600;53.326;-6.298;2023-12-07T00:00:45;12.90;;;3.15;;
24421;SDS011;12600;53.326;-6.298;2023-12-07T00:03:35;16.45;;;4.00;;
24421;SDS011;12600;53.326;-6.298;2023-12-07T00:06:25;12.52;;;4.07;;
24421;SDS011;12600;53.326;-6.298;2023-12-07T00:09:15;14.70;;;3.58;;
24421;SDS011;12600;53.326;-6.298;2023-12-07T00:12:07;18.92;;;3.40;;
24421;SDS011;12600;53.326;-6.298;2023-12-07T00:14:57;17.27;;;4.72;;
24421;SDS011;12600;53.326;-6.298;2023-12-07T00:17:48;20.10;;;3.83;;
24421;SDS011;12600;53.326;-6.298;2023-12-07T00:20:37;19.52;;;4.45;;
24421;SDS011;12600;53.326;-6.298;2023-12-07T00:23:27;12.07;;;3.10;;
24421;SDS011;12600;53.326;-6.298;2023-12-07T00:26:17;12.43;;;2.55;;
24421;SDS011;12600;53.326;-6.298;2023-12-07T00:29:06;17.38;;;3.83;;
24421;SDS011;12600;53.326;-6.298;2023-12-07T00:31:55;9.55;;;3.17;;
24421;SDS011;12600;53.326;-6.298;2023-12-07T00:34:46;13.13;;;3.03;;
24421;SDS011;12600;53.326;-6.298;2023-12-07T00:37:37;14.10;;;3.30;;
24421;SDS011;12600;53.326;-6.298;2023-12-07T00:40:26;10.90;;;3.10;;
24421;SDS011;12600;53.326;-6.298;2023-12-07T00:43:16;9.00;;;2.53;;
24421;SDS011;12600;53.326;-6.298;2023-12-07T00:46:06;6.90;;;2.60;;
24421;SDS011;12600;53.326;-6.298;2023-12-07T00:48:56;10.63;;;2.95;;
24421;SDS011;12600;53.326;-6.298;2023-12-07T00:51:47;11.13;;;2.40;;
24421;SDS011;12600;53.326;-6.298;2023-12-07T00:54:37;11.35;;;2.60;;
24421;SDS011;12600;53.326;-6.298;2023-12-07T00:57:26;14.57;;;2.55;;
24421;SDS011;12600;53.326;-6.298;2023-12-07T01:00:16;6.57;;;1.85;;
24421;SDS011;12600;53.326;-6.298;2023-12-07T01:03:05;9.32;;;2.22;;
24421;SDS011;12600;53.326;-6.298;2023-12-07T01:05:55;4.47;;;1.73;;
24421;SDS011;12600;53.326;-6.298;2023-12-07T01:08:46;6.72;;;1.63;;
24421;SDS011;12600;53.326;-6.298;2023-12-07T01:11:35;6.55;;;1.60;;
24421;SDS011;12600;53.326;-6.298;2023-12-07T01:14:25;5.20;;;1.33;;
24421;SDS011;12600;53.326;-6.298;2023-12-07T01:17:14;7.50;;;1.55;;
24421;SDS011;12600;53.326;-6.298;2023-12-07T01:20:05;10.38;;;1.70;;
24421;SDS011;12600;53.326;-6.298;2023-12-07T01:22:59;5.68;;;1.50;;
24421;SDS011;12600;53.326;-6.298;2023-12-07T01:25:50;6.32;;;1.70;;
24421;SDS011;12600;53.326;-6.298;2023-12-07T01:28:39;5.20;;;1.77;;
24421;SDS011;12600;53.326;-6.298;2023-12-07T01:31:28;5.78;;;1.60;;
24421;SDS011;12600;53.326;-6.298;2023-12-07T01:34:18;4.80;;;1.30;;
24421;SDS011;12600;53.326;-6.298;2023-12-07T01:37:07;13.70;;;2.25;;
24421;SDS011;12600;53.326;-6.298;2023-12-07T01:39:57;6.70;;;1.63;;
24421;SDS011;12600;53.326;-6.298;2023-12-07T01:42:51;7.47;;;1.58;;
24421;SDS011;12600;53.326;-6.298;2023-12-07T01:45:41;5.63;;;1.40;;
24421;SDS011;12600;53.326;-6.298;2023-12-07T01:48:30;4.93;;;1.23;;
24421;SDS011;12600;53.326;-6.298;2023-12-07T01:51:20;2.10;;;1.00;;
24421;SDS011;12600;53.326;-6.298;2023-12-07T01:54:10;8.70;;;1.67;;
24421;SDS011;12600;53.326;-6.298;2023-12-07T01:57:00;6.88;;;1.60;;
24421;SDS011;12600;53.326;-6.298;2023-12-07T01:59:51;3.97;;;0.88;;
24421;SDS011;12600;53.326;-6.298;2023-12-07T02:02:40;4.60;;;1.33;;
24421;SDS011;12600;53.326;-6.298;2023-12-07T02:05:30;2.88;;;1.00;;
24421;SDS011;12600;53.326;-6.298;2023-12-07T02:08:21;3.55;;;1.10;;
24421;SDS011;12600;53.326;-6.298;2023-12-07T02:11:10;7.93;;;1.13;;
24421;SDS011;12600;53.326;-6.298;2023-12-07T02:14:00;5.82;;;1.33;;
24421;SDS011;12600;53.326;-6.298;2023-12-07T02:16:53;7.88;;;1.35;;
24421;SDS011;12600;53.326;-6.298;2023-12-07T02:19:55;3.33;;;1.17;;
24421;SDS011;12600;53.326;-6.298;2023-12-07T02:22:54;10.80;;;1.27;;
24421;SDS011;12600;53.326;-6.298;2023-12-07T02:25:51;3.05;;;1.10;;
24421;SDS011;12600;53.326;-6.298;2023-12-07T02:28:44;7.03;;;1.20;;
24421;SDS011;12600;53.326;-6.298;2023-12-07T02:31:33;6.53;;;1.13;;
24421;SDS011;12600;53.326;-6.298;2023-12-07T02:34:23;8.73;;;1.92;;
24421;SDS011;12600;53.326;-6.298;2023-12-07T02:37:12;5.63;;;1.20;;
24421;SDS011;12600;53.326;-6.298;2023-12-07T02:40:02;5.05;;;1.13;;
24421;SDS011;12600;53.326;-6.298;2023-12-07T02:42:58;5.82;;;1.40;;
24421;SDS011;12600;53.326;-6.298;2023-12-07T02:45:54;7.63;;;1.55;;
24421;SDS011;12600;53.326;-6.298;2023-12-07T02:48:44;5.18;;;1.58;;
24421;SDS011;12600;53.326;-6.298;2023-12-07T02:51:33;5.78;;;1.55;;
24421;SDS011;12600;53.326;-6.298;2023-12-07T02:54:23;6.10;;;1.50;;
24421;SDS011;12600;53.326;-6.298;2023-12-07T02:57:12;8.18;;;1.67;;
24421;SDS011;12600;53.326;-6.298;2023-12-07T03:00:03;7.90;;;1.40;;
24421;SDS011;12600;53.326;-6.298;2023-12-07T03:02:56;7.20;;;1.48;;
24421;SDS011;12600;53.326;-6.298;2023-12-07T03:05:46;10.43;;;1.73;;
24421;SDS011;12600;53.326;-6.298;2023-12-07T03:08:36;6.70;;;1.85;;
24421;SDS011;12600;53.326;-6.298;2023-12-07T03:11:25;5.95;;;1.20;;
24421;SDS011;12600;53.326;-6.298;2023-12-07T03:14:15;8.95;;;1.70;;
24421;SDS011;12600;53.326;-6.298;2023-12-07T03:17:04;5.95;;;1.60;;
24421;SDS011;12600;53.326;-6.298;2023-12-07T03:19:55;7.50;;;1.63;;
24421;SDS011;12600;53.326;-6.298;2023-12-07T03:22:45;5.55;;;1.60;;
24421;SDS011;12600;53.326;-6.298;2023-12-07T03:25:34;38.30;;;3.97;;
24421;SDS011;12600;53.326;-6.298;2023-12-07T03:28:24;12.73;;;1.95;;
24421;SDS011;12600;53.326;-6.298;2023-12-07T03:31:13;7.95;;;1.75;;
24421;SDS011;12600;53.326;-6.298;2023-12-07T03:34:03;8.43;;;1.52;;
24421;SDS011;12600;53.326;-6.298;2023-12-07T03:36:54;8.32;;;2.08;;
24421;SDS011;12600;53.326;-6.298;2023-12-07T03:39:44;7.57;;;1.98;;
24421;SDS011;12600;53.326;-6.298;2023-12-07T03:42:33;10.88;;;1.70;;
24421;SDS011;12600;53.326;-6.298;2023-12-07T03:45:42;7.40;;;1.77;;
24421;SDS011;12600;53.326;-6.298;2023-12-07T03:48:32;8.18;;;2.15;;
24421;SDS011;12600;53.326;-6.298;2023-12-07T03:51:21;9.23;;;1.75;;
24421;SDS011;12600;53.326;-6.298;2023-12-07T03:54:12;7.35;;;1.85;;
24421;SDS011;12600;53.326;-6.298;2023-12-07T03:57:02;4.68;;;1.40;;
24421;SDS011;12600;53.326;-6.298;2023-12-07T03:59:52;8.55;;;1.55;;
24421;SDS011;12600;53.326;-6.298;2023-12-07T04:02:41;11.35;;;2.08;;
24421;SDS011;12600;53.326;-6.298;2023-12-07T04:05:31;7.25;;;1.95;;
24421;SDS011;12600;53.326;-6.298;2023-12-07T04:08:21;10.50;;;1.65;;
24421;SDS011;12600;53.326;-6.298;2023-12-07T04:11:12;10.90;;;1.83;;
24421;SDS011;12600;53.326;-6.298;2023-12-07T04:14:02;15.50;;;2.45;;
24421;SDS011;12600;53.326;-6.298;2023-12-07T04:16:52;12.88;;;2.10;;
24421;SDS011;12600;53.326;-6.298;2023-12-07T04:19:41;11.57;;;1.90;;
24421;SDS011;12600;53.326;-6.298;2023-12-07T04:22:31;7.72;;;1.80;;
24421;SDS011;12600;53.326;-6.298;2023-12-07T04:25:21;13.43;;;1.73;;
24421;SDS011;12600;53.326;-6.298;2023-12-07T04:28:12;11.68;;;1.40;;
24421;SDS011;12600;53.326;-6.298;2023-12-07T04:31:01;7.50;;;1.77;;
24421;SDS011;12600;53.326;-6.298;2023-12-07T04:33:51;6.53;;;1.50;;
24421;SDS011;12600;53.326;-6.298;2023-12-07T04:36:41;5.93;;;1.50;;
24421;SDS011;12600;53.326;-6.298;2023-12-07T04:39:30;7.05;;;1.60;;
24421;SDS011;12600;53.326;-6.298;2023-12-07T04:42:19;12.05;;;1.63;;
24421;SDS011;12600;53.326;-6.298;2023-12-07T04:45:11;9.18;;;1.45;;
24421;SDS011;12600;53.326;-6.298;2023-12-07T04:48:00;10.45;;;1.67;;
24421;SDS011;12600;53.326;-6.298;2023-12-07T04:50:51;4.75;;;1.58;;
24421;SDS011;12600;53.326;-6.298;2023-12-07T04:53:40;6.53;;;1.42;;
24421;SDS011;12600;53.326;-6.298;2023-12-07T04:56:30;3.83;;;1.60;;
24421;SDS011;12600;53.326;-6.298;2023-12-07T04:59:19;7.90;;;1.85;;
24421;SDS011;12600;53.326;-6.298;2023-12-07T05:02:11;7.53;;;1.70;;
24421;SDS011;12600;53.326;-6.298;2023-12-07T05:05:00;7.53;;;1.70;;
24421;SDS011;12600;53.326;-6.298;2023-12-07T05:07:50;9.20;;;1.65;;
24421;SDS011;12600;53.326;-6.298;2023-12-07T05:10:39;6.57;;;2.08;;
24421;SDS011;12600;53.326;-6.298;2023-12-07T05:13:29;7.63;;;2.40;;
24421;SDS011;12600;53.326;-6.298;2023-12-07T05:16:21;4.97;;;1.77;;
24421;SDS011;12600;53.326;-6.298;2023-12-07T05:19:12;10.15;;;2.67;;
24421;SDS011;12600;53.326;-6.298;2023-12-07T05:22:01;12.48;;;2.45;;
24421;SDS011;12600;53.326;-6.298;2023-12-07T05:24:51;14.15;;;2.42;;
24421;SDS011;12600;53.326;-6.298;2023-12-07T05:27:40;8.82;;;2.13;;
24421;SDS011;12600;53.326;-6.298;2023-12-07T05:30:30;11.63;;;2.00;;
24421;SDS011;12600;53.326;-6.298;2023-12-07T05:33:20;11.95;;;1.95;;
24421;SDS011;12600;53.326;-6.298;2023-12-07T05:36:11;12.07;;;2.10;;
24421;SDS011;12600;53.326;-6.298;2023-12-07T05:39:00;12.70;;;1.95;;
24421;SDS011;12600;53.326;-6.298;2023-12-07T05:41:52;11.57;;;2.13;;
24421;SDS011;12600;53.326;-6.298;2023-12-07T05:44:41;16.33;;;2.45;;
24421;SDS011;12600;53.326;-6.298;2023-12-07T05:47:31;21.98;;;3.80;;
24421;SDS011;12600;53.326;-6.298;2023-12-07T05:50:20;20.92;;;4.00;;
24421;SDS011;12600;53.326;-6.298;2023-12-07T05:53:11;23.00;;;3.65;;
24421;SDS011;12600;53.326;-6.298;2023-12-07T05:56:01;17.20;;;2.30;;
24421;SDS011;12600;53.326;-6.298;2023-12-07T05:58:52;23.15;;;2.58;;
24421;SDS011;12600;53.326;-6.298;2023-12-07T06:01:41;19.25;;;2.60;;
24421;SDS011;12600;53.326;-6.298;2023-12-07T06:04:31;19.85;;;2.65;;
24421;SDS011;12600;53.326;-6.298;2023-12-07T06:07:21;27.23;;;3.10;;
24421;SDS011;12600;53.326;-6.298;2023-12-07T06:10:12;25.92;;;3.95;;
24421;SDS011;12600;53.326;-6.298;2023-12-07T06:13:02;31.73;;;2.85;;
24421;SDS011;12600;53.326;-6.298;2023-12-07T06:15:52;28.38;;;2.97;;
24421;SDS011;12600;53.326;-6.298;2023-12-07T06:18:41;23.40;;;2.90;;
24421;SDS011;12600;53.326;-6.298;2023-12-07T06:21:31;35.45;;;3.20;;
24421;SDS011;12600;53.326;-6.298;2023-12-07T06:24:20;33.25;;;4.38;;
24421;SDS011;12600;53.326;-6.298;2023-12-07T06:27:13;33.58;;;4.63;;
24421;SDS011;12600;53.326;-6.298;2023-12-07T06:30:03;29.60;;;3.90;;
24421;SDS011;12600;53.326;-6.298;2023-12-07T06:32:54;35.63;;;4.13;;
24421;SDS011;12600;53.326;-6.298;2023-12-07T06:35:43;32.13;;;3.63;;
24421;SDS011;12600;53.326;-6.298;2023-12-07T06:38:34;29.63;;;4.45;;
24421;SDS011;12600;53.326;-6.298;2023-12-07T06:41:23;38.83;;;4.25;;
24421;SDS011;12600;53.326;-6.298;2023-12-07T06:44:14;36.85;;;4.63;;
24421;SDS011;12600;53.326;-6.298;2023-12-07T06:47:03;44.03;;;5.15;;
24421;SDS011;12600;53.326;-6.298;2023-12-07T06:49:53;38.47;;;5.43;;
24421;SDS011;12600;53.326;-6.298;2023-12-07T06:52:43;41.88;;;4.75;;
24421;SDS011;12600;53.326;-6.298;2023-12-07T06:55:33;27.58;;;3.63;;
24421;SDS011;12600;53.326;-6.298;2023-12-07T06:58:30;30.60;;;4.28;;
24421;SDS011;12600;53.326;-6.298;2023-12-07T07:01:21;34.88;;;4.43;;
24421;SDS011;12600;53.326;-6.298;2023-12-07T07:04:11;42.75;;;4.50;;
24421;SDS011;12600;53.326;-6.298;2023-12-07T07:07:00;31.05;;;4.53;;
24421;SDS011;12600;53.326;-6.298;2023-12-07T07:09:50;27.55;;;3.72;;
24421;SDS011;12600;53.326;-6.298;2023-12-07T07:12:42;25.63;;;3.80;;
24421;SDS011;12600;53.326;-6.298;2023-12-07T07:15:31;29.60;;;4.28;;
24421;SDS011;12600;53.326;-6.298;2023-12-07T07:18:23;28.13;;;3.70;;
24421;SDS011;12600;53.326;-6.298;2023-12-07T07:21:13;28.02;;;3.95;;
24421;SDS011;12600;53.326;-6.298;2023-12-07T07:24:02;30.55;;;4.53;;
24421;SDS011;12600;53.326;-6.298;2023-12-07T07:26:54;28.23;;;5.63;;
24421;SDS011;12600;53.326;-6.298;2023-12-07T07:29:43;33.40;;;4.78;;
24421;SDS011;12600;53.326;-6.298;2023-12-07T07:32:33;43.63;;;5.15;;
24421;SDS011;12600;53.326;-6.298;2023-12-07T07:35:25;39.70;;;5.80;;
24421;SDS011;12600;53.326;-6.298;2023-12-07T07:38:14;41.45;;;5.50;;
24421;SDS011;12600;53.326;-6.298;2023-12-07T07:41:04;42.97;;;5.50;;
24421;SDS011;12600;53.326;-6.298;2023-12-07T07:43:53;43.95;;;5.70;;
24421;SDS011;12600;53.326;-6.298;2023-12-07T07:46:44;34.53;;;4.55;;
24421;SDS011;12600;53.326;-6.298;2023-12-07T07:49:33;32.83;;;5.10;;
24421;SDS011;12600;53.326;-6.298;2023-12-07T07:52:24;26.40;;;4.45;;
24421;SDS011;12600;53.326;-6.298;2023-12-07T07:55:14;23.55;;;3.50;;
24421;SDS011;12600;53.326;-6.298;2023-12-07T07:58:03;38.25;;;4.47;;
24421;SDS011;12600;53.326;-6.298;2023-12-07T08:00:53;21.88;;;3.10;;
24421;SDS011;12600;53.326;-6.298;2023-12-07T08:03:43;29.42;;;5.00;;
24421;SDS011;12600;53.326;-6.298;2023-12-07T08:06:32;25.55;;;4.40;;
24421;SDS011;12600;53.326;-6.298;2023-12-07T08:09:25;26.17;;;3.55;;
24421;SDS011;12600;53.326;-6.298;2023-12-07T08:12:14;26.65;;;2.95;;
24421;SDS011;12600;53.326;-6.298;2023-12-07T08:15:04;32.10;;;3.75;;
24421;SDS011;12600;53.326;-6.298;2023-12-07T08:17:58;27.92;;;4.90;;
24421;SDS011;12600;53.326;-6.298;2023-12-07T08:20:48;26.50;;;4.90;;
24421;SDS011;12600;53.326;-6.298;2023-12-07T08:23:37;25.83;;;3.60;;
24421;SDS011;12600;53.326;-6.298;2023-12-07T08:26:29;22.27;;;3.03;;
24421;SDS011;12600;53.326;-6.298;2023-12-07T08:29:18;31.40;;;4.05;;
24421;SDS011;12600;53.326;-6.298;2023-12-07T08:32:08;25.63;;;2.90;;
24421;SDS011;12600;53.326;-6.298;2023-12-07T08:34:57;32.75;;;4.40;;
24421;SDS011;12600;53.326;-6.298;2023-12-07T08:37:47;25.25;;;2.75;;
24421;SDS011;12600;53.326;-6.298;2023-12-07T08:40:36;33.95;;;3.28;;
24421;SDS011;12600;53.326;-6.298;2023-12-07T08:43:28;32.17;;;3.40;;
24421;SDS011;12600;53.326;-6.298;2023-12-07T08:46:18;24.63;;;3.00;;
24421;SDS011;12600;53.326;-6.298;2023-12-07T08:49:07;37.58;;;3.47;;
24421;SDS011;12600;53.326;-6.298;2023-12-07T08:51:57;25.70;;;3.25;;
24421;SDS011;12600;53.326;-6.298;2023-12-07T08:55:06;26.02;;;3.60;;
24421;SDS011;12600;53.326;-6.298;2023-12-07T08:57:56;24.75;;;4.00;;
24421;SDS011;12600;53.326;-6.298;2023-12-07T09:00:48;14.05;;;2.33;;
24421;SDS011;12600;53.326;-6.298;2023-12-07T09:03:39;19.65;;;2.92;;
24421;SDS011;12600;53.326;-6.298;2023-12-07T09:06:28;18.40;;;3.35;;
24421;SDS011;12600;53.326;-6.298;2023-12-07T09:09:18;16.42;;;2.97;;
24421;SDS011;12600;53.326;-6.298;2023-12-07T09:12:09;18.58;;;2.67;;
24421;SDS011;12600;53.326;-6.298;2023-12-07T09:14:59;17.67;;;2.80;;
24421;SDS011;12600;53.326;-6.298;2023-12-07T09:17:51;21.85;;;3.05;;
24421;SDS011;12600;53.326;-6.298;2023-12-07T09:20:40;18.23;;;2.80;;
24421;SDS011;12600;53.326;-6.298;2023-12-07T09:23:34;12.32;;;2.20;;
24421;SDS011;12600;53.326;-6.298;2023-12-07T09:26:24;17.95;;;2.53;;
24421;SDS011;12600;53.326;-6.298;2023-12-07T09:29:14;17.75;;;2.47;;
24421;SDS011;12600;53.326;-6.298;2023-12-07T09:32:04;17.52;;;2.58;;
24421;SDS011;12600;53.326;-6.298;2023-12-07T09:34:56;14.23;;;2.50;;
24421;SDS011;12600;53.326;-6.298;2023-12-07T09:37:46;23.88;;;3.25;;
24421;SDS011;12600;53.326;-6.298;2023-12-07T09:40:37;13.68;;;3.15;;
24421;SDS011;12600;53.326;-6.298;2023-12-07T09:43:26;16.83;;;3.45;;
24421;SDS011;12600;53.326;-6.298;2023-12-07T09:46:16;22.45;;;4.05;;
24421;SDS011;12600;53.326;-6.298;2023-12-07T09:49:06;14.85;;;3.58;;
24421;SDS011;12600;53.326;-6.298;2023-12-07T09:51:57;11.70;;;3.45;;
24421;SDS011;12600;53.326;-6.298;2023-12-07T09:54:49;12.98;;;2.53;;
24421;SDS011;12600;53.326;-6.298;2023-12-07T09:57:40;6.13;;;1.30;;
24421;SDS011;12600;53.326;-6.298;2023-12-07T10:00:29;5.20;;;1.75;;
24421;SDS011;12600;53.326;-6.298;2023-12-07T10:03:20;3.13;;;1.35;;
24421;SDS011;12600;53.326;-6.298;2023-12-07T10:06:11;2.50;;;0.88;;
24421;SDS011;12600;53.326;-6.298;2023-12-07T10:09:04;1.98;;;0.90;;
24421;SDS011;12600;53.326;-6.298;2023-12-07T10:12:04;2.33;;;1.20;;
24421;SDS011;12600;53.326;-6.298;2023-12-07T10:14:54;2.28;;;1.02;;
24421;SDS011;12600;53.326;-6.298;2023-12-07T10:17:45;3.10;;;1.20;;
24421;SDS011;12600;53.326;-6.298;2023-12-07T10:23:33;6.57;;;1.88;;
24421;SDS011;12600;53.326;-6.298;2023-12-07T10:26:25;4.55;;;1.00;;
24421;SDS011;12600;53.326;-6.298;2023-12-07T10:29:14;2.85;;;0.90;;
24421;SDS011;12600;53.326;-6.298;2023-12-07T10:32:18;3.72;;;0.90;;
24421;SDS011;12600;53.326;-6.298;2023-12-07T10:35:10;4.05;;;1.42;;
24421;SDS011;12600;53.326;-6.298;2023-12-07T10:37:59;2.25;;;1.00;;
24421;SDS011;12600;53.326;-6.298;2023-12-07T10:40:51;3.53;;;1.00;;
24421;SDS011;12600;53.326;-6.298;2023-12-07T10:43:57;4.70;;;1.15;;
24421;SDS011;12600;53.326;-6.298;2023-12-07T10:46:49;4.35;;;1.45;;
24421;SDS011;12600;53.326;-6.298;2023-12-07T10:49:40;3.28;;;1.30;;
24421;SDS011;12600;53.326;-6.298;2023-12-07T10:52:35;2.75;;;1.13;;
24421;SDS011;12600;53.326;-6.298;2023-12-07T10:58:18;2.97;;;1.05;;
24421;SDS011;12600;53.326;-6.298;2023-12-07T11:01:11;5.90;;;1.60;;
24421;SDS011;12600;53.326;-6.298;2023-12-07T11:04:02;5.33;;;1.10;;
24421;SDS011;12600;53.326;-6.298;2023-12-07T11:06:53;4.20;;;1.50;;
24421;SDS011;12600;53.326;-6.298;2023-12-07T11:09:53;3.20;;;1.50;;
24421;SDS011;12600;53.326;-6.298;2023-12-07T11:12:54;3.25;;;1.10;;
24421;SDS011;12600;53.326;-6.298;2023-12-07T11:15:51;7.07;;;0.95;;
24421;SDS011;12600;53.326;-6.298;2023-12-07T11:18:42;3.08;;;1.20;;
24421;SDS011;12600;53.326;-6.298;2023-12-07T11:21:31;5.28;;;0.70;;
24421;SDS011;12600;53.326;-6.298;2023-12-07T11:24:23;2.75;;;1.95;;
24421;SDS011;12600;53.326;-6.298;2023-12-07T11:27:12;5.00;;;1.40;;
24421;SDS011;12600;53.326;-6.298;2023-12-07T11:30:02;3.33;;;0.70;;
24421;SDS011;12600;53.326;-6.298;2023-12-07T11:32:53;7.10;;;0.90;;
24421;SDS011;12600;53.326;-6.298;2023-12-07T11:42:15;4.00;;;0.80;;
24421;SDS011;12600;53.326;-6.298;2023-12-07T11:45:09;2.28;;;0.80;;
24421;SDS011;12600;53.326;-6.298;2023-12-07T11:48:11;4.38;;;1.00;;
24421;SDS011;12600;53.326;-6.298;2023-12-07T11:51:06;5.88;;;0.90;;
24421;SDS011;12600;53.326;-6.298;2023-12-07T11:53:56;5.00;;;1.40;;
24421;SDS011;12600;53.326;-6.298;2023-12-07T11:56:45;4.85;;;1.10;;
24421;SDS011;12600;53.326;-6.298;2023-12-07T11:59:41;8.88;;;1.08;;
24421;SDS011;12600;53.326;-6.298;2023-12-07T12:02:32;5.70;;;1.40;;
24421;SDS011;12600;53.326;-6.298;2023-12-07T12:05:25;6.55;;;2.47;;
24421;SDS011;12600;53.326;-6.298;2023-12-07T12:08:16;4.70;;;1.55;;
24421;SDS011;12600;53.326;-6.298;2023-12-07T12:11:06;5.05;;;1.52;;
24421;SDS011;12600;53.326;-6.298;2023-12-07T12:13:55;4.53;;;1.85;;
24421;SDS011;12600;53.326;-6.298;2023-12-07T12:16:45;10.32;;;1.83;;
24421;SDS011;12600;53.326;-6.298;2023-12-07T12:19:35;6.15;;;1.80;;
24421;SDS011;12600;53.326;-6.298;2023-12-07T12:22:25;7.05;;;2.00;;
24421;SDS011;12600;53.326;-6.298;2023-12-07T12:25:16;8.60;;;2.50;;
24421;SDS011;12600;53.326;-6.298;2023-12-07T12:28:05;3.90;;;1.20;;
24421;SDS011;12600;53.326;-6.298;2023-12-07T12:30:57;4.90;;;1.60;;
24421;SDS011;12600;53.326;-6.298;2023-12-07T12:33:47;5.32;;;1.52;;
24421;SDS011;12600;53.326;-6.298;2023-12-07T12:36:37;5.85;;;1.25;;
24421;SDS011;12600;53.326;-6.298;2023-12-07T12:39:27;4.22;;;1.30;;
24421;SDS011;12600;53.326;-6.298;2023-12-07T12:42:22;7.82;;;1.45;;
24421;SDS011;12600;53.326;-6.298;2023-12-07T12:45:12;5.88;;;1.40;;
24421;SDS011;12600;53.326;-6.298;2023-12-07T12:48:03;4.47;;;1.00;;
24421;SDS011;12600;53.326;-6.298;2023-12-07T12:50:54;2.60;;;1.17;;
24421;SDS011;12600;53.326;-6.298;2023-12-07T12:53:44;7.95;;;2.67;;
24421;SDS011;12600;53.326;-6.298;2023-12-07T12:56:38;6.22;;;1.80;;
24421;SDS011;12600;53.326;-6.298;2023-12-07T12:59:29;8.85;;;2.25;;
24421;SDS011;12600;53.326;-6.298;2023-12-07T13:02:19;6.60;;;1.67;;
24421;SDS011;12600;53.326;-6.298;2023-12-07T13:05:09;4.10;;;1.20;;
24421;SDS011;12600;53.326;-6.298;2023-12-07T13:07:59;3.20;;;1.05;;
24421;SDS011;12600;53.326;-6.298;2023-12-07T13:11:00;6.65;;;2.45;;
24421;SDS011;12600;53.326;-6.298;2023-12-07T13:13:50;2.67;;;0.75;;
24421;SDS011;12600;53.326;-6.298;2023-12-07T13:16:41;3.05;;;0.90;;
24421;SDS011;12600;53.326;-6.298;2023-12-07T13:19:30;4.10;;;0.85;;
24421;SDS011;12600;53.326;-6.298;2023-12-07T13:22:20;7.40;;;1.52;;
24421;SDS011;12600;53.326;-6.298;2023-12-07T13:25:10;6.95;;;1.27;;
24421;SDS011;12600;53.326;-6.298;2023-12-07T13:28:02;6.90;;;1.15;;
24421;SDS011;12600;53.326;-6.298;2023-12-07T13:30:51;12.38;;;1.50;;
24421;SDS011;12600;53.326;-6.298;2023-12-07T13:33:42;10.88;;;1.92;;
24421;SDS011;12600;53.326;-6.298;2023-12-07T13:36:42;13.30;;;1.88;;
24421;SDS011;12600;53.326;-6.298;2023-12-07T13:39:32;7.55;;;1.85;;
24421;SDS011;12600;53.326;-6.298;2023-12-07T13:42:21;14.02;;;2.50;;
24421;SDS011;12600;53.326;-6.298;2023-12-07T13:45:13;11.80;;;1.98;;
24421;SDS011;12600;53.326;-6.298;2023-12-07T13:48:03;17.10;;;2.75;;
24421;SDS011;12600;53.326;-6.298;2023-12-07T13:50:54;20.35;;;2.58;;
24421;SDS011;12600;53.326;-6.298;2023-12-07T13:53:44;16.55;;;2.40;;
24421;SDS011;12600;53.326;-6.298;2023-12-07T13:56:33;16.20;;;2.17;;
24421;SDS011;12600;53.326;-6.298;2023-12-07T13:59:23;15.40;;;3.08;;
24421;SDS011;12600;53.326;-6.298;2023-12-07T14:02:12;17.50;;;2.97;;
24421;SDS011;12600;53.326;-6.298;2023-12-07T14:05:02;11.57;;;2.58;;
24421;SDS011;12600;53.326;-6.298;2023-12-07T14:07:54;19.42;;;3.20;;
24421;SDS011;12600;53.326;-6.298;2023-12-07T14:10:43;19.13;;;2.65;;
24421;SDS011;12600;53.326;-6.298;2023-12-07T14:13:33;19.50;;;2.55;;
24421;SDS011;12600;53.326;-6.298;2023-12-07T14:16:23;13.60;;;2.80;;
24421;SDS011;12600;53.326;-6.298;2023-12-07T14:19:32;18.48;;;2.90;;
24421;SDS011;12600;53.326;-6.298;2023-12-07T14:22:51;16.75;;;4.20;;
24421;SDS011;12600;53.326;-6.298;2023-12-07T14:25:42;18.02;;;4.18;;
24421;SDS011;12600;53.326;-6.298;2023-12-07T14:28:33;21.60;;;3.20;;
24421;SDS011;12600;53.326;-6.298;2023-12-07T14:31:24;13.63;;;2.20;;
24421;SDS011;12600;53.326;-6.298;2023-12-07T14:34:13;16.60;;;2.58;;
24421;SDS011;12600;53.326;-6.298;2023-12-07T14:37:09;18.17;;;2.65;;
24421;SDS011;12600;53.326;-6.298;2023-12-07T14:40:00;24.75;;;3.38;;
24421;SDS011;12600;53.326;-6.298;2023-12-07T14:42:52;20.15;;;3.20;;
24421;SDS011;12600;53.326;-6.298;2023-12-07T14:45:41;23.20;;;3.45;;
24421;SDS011;12600;53.326;-6.298;2023-12-07T14:48:31;14.15;;;3.17;;
24421;SDS011;12600;53.326;-6.298;2023-12-07T14:51:21;19.48;;;2.92;;
24421;SDS011;12600;53.326;-6.298;2023-12-07T14:54:11;23.55;;;3.40;;
24421;SDS011;12600;53.326;-6.298;2023-12-07T14:57:10;27.55;;;3.45;;
24421;SDS011;12600;53.326;-6.298;2023-12-07T14:59:59;19.25;;;4.20;;
24421;SDS011;12600;53.326;-6.298;2023-12-07T15:02:52;18.45;;;3.53;;
24421;SDS011;12600;53.326;-6.298;2023-12-07T15:05:41;20.58;;;3.40;;
24421;SDS011;12600;53.326;-6.298;2023-12-07T15:08:30;27.35;;;4.18;;
24421;SDS011;12600;53.326;-6.298;2023-12-07T15:11:20;30.08;;;3.45;;
24421;SDS011;12600;53.326;-6.298;2023-12-07T15:14:11;25.50;;;3.38;;
24421;SDS011;12600;53.326;-6.298;2023-12-07T15:17:19;22.60;;;3.67;;
24421;SDS011;12600;53.326;-6.298;2023-12-07T15:20:09;31.60;;;4.03;;
24421;SDS011;12600;53.326;-6.298;2023-12-07T15:23:00;25.42;;;3.65;;
24421;SDS011;12600;53.326;-6.298;2023-12-07T15:25:49;36.28;;;4.43;;
24421;SDS011;12600;53.326;-6.298;2023-12-07T15:28:39;30.10;;;3.70;;
24421;SDS011;12600;53.326;-6.298;2023-12-07T15:31:32;35.65;;;4.25;;
24421;SDS011;12600;53.326;-6.298;2023-12-07T15:34:21;31.10;;;3.65;;
24421;SDS011;12600;53.326;-6.298;2023-12-07T15:37:24;28.85;;;5.30;;
24421;SDS011;12600;53.326;-6.298;2023-12-07T15:40:14;34.50;;;4.32;;
24421;SDS011;12600;53.326;-6.298;2023-12-07T15:43:03;31.23;;;4.55;;
24421;SDS011;12600;53.326;-6.298;2023-12-07T15:45:53;33.92;;;4.35;;
24421;SDS011;12600;53.326;-6.298;2023-12-07T15:48:44;45.88;;;4.78;;
24421;SDS011;12600;53.326;-6.298;2023-12-07T15:51:34;47.80;;;5.07;;
24421;SDS011;12600;53.326;-6.298;2023-12-07T15:54:23;36.60;;;5.13;;
24421;SDS011;12600;53.326;-6.298;2023-12-07T15:57:25;35.78;;;4.60;;
24421;SDS011;12600;53.326;-6.298;2023-12-07T16:00:15;34.25;;;4.28;;
24421;SDS011;12600;53.326;-6.298;2023-12-07T16:03:05;31.60;;;4.47;;
24421;SDS011;12600;53.326;-6.298;2023-12-07T16:05:55;44.60;;;7.45;;
24421;SDS011;12600;53.326;-6.298;2023-12-07T16:08:45;30.15;;;5.07;;
24421;SDS011;12600;53.326;-6.298;2023-12-07T16:11:35;35.35;;;6.00;;
24421;SDS011;12600;53.326;-6.298;2023-12-07T16:14:24;56.65;;;11.65;;
24421;SDS011;12600;53.326;-6.298;2023-12-07T16:17:17;33.97;;;4.72;;
24421;SDS011;12600;53.326;-6.298;2023-12-07T16:20:07;45.22;;;9.45;;
24421;SDS011;12600;53.326;-6.298;2023-12-07T16:22:59;43.35;;;10.50;;
24421;SDS011;12600;53.326;-6.298;2023-12-07T16:25:49;42.72;;;9.15;;
24421;SDS011;12600;53.326;-6.298;2023-12-07T16:28:38;52.72;;;7.85;;
24421;SDS011;12600;53.326;-6.298;2023-12-07T16:31:28;53.03;;;9.18;;
24421;SDS011;12600;53.326;-6.298;2023-12-07T16:34:17;39.88;;;7.63;;
24421;SDS011;12600;53.326;-6.298;2023-12-07T16:37:08;33.85;;;5.93;;
24421;SDS011;12600;53.326;-6.298;2023-12-07T16:39:59;41.70;;;6.07;;
24421;SDS011;12600;53.326;-6.298;2023-12-07T16:42:49;39.92;;;8.18;;
24421;SDS011;12600;53.326;-6.298;2023-12-07T16:45:38;43.25;;;7.85;;
24421;SDS011;12600;53.326;-6.298;2023-12-07T16:48:28;43.13;;;6.78;;
24421;SDS011;12600;53.326;-6.298;2023-12-07T16:51:17;38.13;;;6.63;;
24421;SDS011;12600;53.326;-6.298;2023-12-07T16:54:07;35.15;;;6.82;;
24421;SDS011;12600;53.326;-6.298;2023-12-07T16:56:58;47.38;;;9.30;;